Time;durP1;ratioP1;P1;durP2;ratioP2;P2;SDS_P1;SDS_P2;PMS_P1;PMS_P2;Temp;Humidity;BMP_temperature;BMP_pressure;BME280_temperature;BME280_humidity;BME280_pressure;Samples;Min_cycle;Max_cycle;Signal;HPM_P1;HPM_P2
2023/09/17 00:00:25;;;;;;;4.25;1.10;;;23.80;53.50;;;;;;6238553;28;20045;-76
2023/09/17 00:03:26;;;;;;;2.75;1.00;;;23.70;53.40;;;;;;6239988;28;20036;-74
2023/09/17 00:06:27;;;;;;;2.95;1.58;;;23.80;53.50;;;;;;6237892;28;20144;-75
2023/09/17 00:09:28;;;;;;;3.30;0.93;;;23.80;53.50;;;;;;6237536;28;20061;-75
2023/09/17 00:12:29;;;;;;;1.23;0.90;;;23.80;53.60;;;;;;6239622;28;20067;-75
2023/09/17 00:15:30;;;;;;;2.10;0.98;;;23.80;53.60;;;;;;6237213;28;20346;-75
2023/09/17 00:18:31;;;;;;;2.17;0.85;;;23.80;53.70;;;;;;6239905;28;20485;-74
2023/09/17 00:21:32;;;;;;;3.33;0.90;;;23.70;53.70;;;;;;6237538;28;20106;-76
2023/09/17 00:24:33;;;;;;;5.55;0.93;;;23.70;53.80;;;;;;6238539;28;20059;-75
2023/09/17 00:27:34;;;;;;;3.38;1.02;;;23.70;53.80;;;;;;6238014;28;20038;-75
2023/09/17 00:30:35;;;;;;;2.13;1.10;;;23.70;53.90;;;;;;6237824;28;20546;-75
2023/09/17 00:33:38;;;;;;;6.95;1.33;;;23.70;54.10;;;;;;6221488;28;20033;-76
2023/09/17 00:36:39;;;;;;;4.90;2.13;;;23.60;54.10;;;;;;6237953;28;20103;-74
2023/09/17 00:39:40;;;;;;;4.05;1.52;;;23.60;54.20;;;;;;6236916;28;20052;-75
2023/09/17 00:42:41;;;;;;;7.18;2.35;;;23.50;54.30;;;;;;6237513;28;20049;-76
2023/09/17 00:45:43;;;;;;;5.78;2.80;;;23.50;54.60;;;;;;6238949;28;20037;-76
2023/09/17 00:48:45;;;;;;;4.65;1.15;;;23.40;54.80;;;;;;6237957;28;20092;-75
2023/09/17 00:51:45;;;;;;;6.78;1.33;;;23.40;54.90;;;;;;6236918;28;20461;-75
2023/09/17 00:54:49;;;;;;;2.90;1.27;;;23.40;55.00;;;;;;6238777;28;20030;-75
2023/09/17 00:57:50;;;;;;;5.40;1.65;;;23.30;55.00;;;;;;6236843;28;20146;-75
2023/09/17 01:00:52;;;;;;;5.45;1.65;;;23.30;55.10;;;;;;6220527;28;20397;-74
2023/09/17 01:03:52;;;;;;;4.75;1.17;;;23.30;55.20;;;;;;6238715;28;20474;-75
2023/09/17 01:06:55;;;;;;;1.98;1.08;;;23.30;55.30;;;;;;6236727;28;20091;-74
2023/09/17 01:09:56;;;;;;;3.10;1.20;;;23.30;55.40;;;;;;6237979;28;20110;-75
2023/09/17 01:12:57;;;;;;;6.53;1.33;;;23.20;55.40;;;;;;6214858;28;20347;-75
2023/09/17 01:15:59;;;;;;;2.03;1.02;;;23.20;55.50;;;;;;6236505;28;20044;-75
2023/09/17 01:19:00;;;;;;;5.65;1.38;;;23.20;55.50;;;;;;6237864;28;20178;-76
2023/09/17 01:22:12;;;;;;;7.18;1.58;;;23.20;55.50;;;;;;6217533;28;20070;-74
2023/09/17 01:25:48;;;;;;;5.45;1.30;;;23.20;55.80;;;;;;6211860;28;20034;-74
2023/09/17 01:28:48;;;;;;;8.98;1.20;;;23.10;55.80;;;;;;6213858;28;20099;-75
2023/09/17 01:31:49;;;;;;;4.10;1.08;;;23.10;55.70;;;;;;6212123;28;20177;-75
2023/09/17 01:34:53;;;;;;;1.73;1.10;;;23.10;55.80;;;;;;6213854;28;20109;-75
2023/09/17 01:37:59;;;;;;;3.47;1.00;;;23.00;55.90;;;;;;6216865;28;20111;-76
2023/09/17 01:41:02;;;;;;;1.60;1.00;;;23.00;56.00;;;;;;6237861;28;20037;-74
2023/09/17 01:44:08;;;;;;;2.53;1.20;;;23.00;56.10;;;;;;6236467;28;20044;-75
2023/09/17 01:47:10;;;;;;;1.27;0.93;;;23.00;56.10;;;;;;6231506;28;20030;-75
2023/09/17 01:50:15;;;;;;;2.97;1.15;;;23.00;56.10;;;;;;6237826;28;20446;-75
2023/09/17 01:53:16;;;;;;;1.35;0.85;;;23.00;56.20;;;;;;6238107;28;20116;-75
2023/09/17 01:56:17;;;;;;;5.18;0.70;;;23.00;56.80;;;;;;6220052;28;20116;-75
2023/09/17 01:59:19;;;;;;;3.67;1.13;;;22.90;56.20;;;;;;6236784;28;20107;-75
2023/09/17 02:02:21;;;;;;;4.32;1.08;;;22.90;56.30;;;;;;6219848;28;20505;-76
2023/09/17 02:05:25;;;;;;;1.17;0.90;;;22.90;56.30;;;;;;6237887;28;20478;-75
2023/09/17 02:08:25;;;;;;;1.13;0.70;;;22.90;56.40;;;;;;6235849;28;20030;-74
2023/09/17 02:11:26;;;;;;;2.85;1.30;;;22.80;56.30;;;;;;6226802;28;20505;-75
2023/09/17 02:14:28;;;;;;;7.53;1.27;;;22.80;56.30;;;;;;6219655;28;20093;-75
2023/09/17 02:17:29;;;;;;;3.08;1.30;;;22.80;56.50;;;;;;6211328;28;20033;-75
2023/09/17 02:20:32;;;;;;;3.03;1.00;;;22.80;56.60;;;;;;6211329;28;20557;-74
2023/09/17 02:23:33;;;;;;;8.75;1.27;;;22.80;56.70;;;;;;6213293;28;20363;-75
2023/09/17 02:26:33;;;;;;;1.88;1.08;;;22.80;56.70;;;;;;6213490;28;20037;-76
2023/09/17 02:29:34;;;;;;;3.05;0.80;;;22.70;57.40;;;;;;6211387;28;20037;-75
2023/09/17 02:32:37;;;;;;;4.68;1.50;;;22.70;56.80;;;;;;6211326;28;20042;-74
2023/09/17 02:35:39;;;;;;;1.55;0.90;;;22.80;56.80;;;;;;6211350;28;20443;-74
2023/09/17 02:38:43;;;;;;;4.43;1.13;;;22.70;56.80;;;;;;6212630;28;20037;-75
2023/09/17 02:41:44;;;;;;;2.03;0.82;;;22.70;56.90;;;;;;6216120;28;20042;-74
2023/09/17 02:44:45;;;;;;;4.50;0.95;;;22.70;57.00;;;;;;6222654;28;20473;-74
2023/09/17 02:47:46;;;;;;;2.38;1.10;;;22.60;57.00;;;;;;6240416;28;20029;-75
2023/09/17 02:50:48;;;;;;;3.95;1.13;;;22.60;57.70;;;;;;6240039;28;20485;-75
2023/09/17 02:53:49;;;;;;;1.33;1.00;;;22.60;57.20;;;;;;6240619;28;20037;-76
2023/09/17 02:56:50;;;;;;;1.40;0.93;;;22.60;57.20;;;;;;6240181;28;20478;-74
2023/09/17 02:59:52;;;;;;;1.25;1.00;;;22.60;57.20;;;;;;6240374;28;20045;-75
2023/09/17 03:02:54;;;;;;;3.40;0.90;;;22.60;57.20;;;;;;6240615;28;20037;-75
2023/09/17 03:05:56;;;;;;;2.53;1.00;;;22.60;57.20;;;;;;6241809;28;20061;-75
2023/09/17 03:08:57;;;;;;;1.40;0.98;;;22.60;57.20;;;;;;6240233;28;20030;-76
2023/09/17 03:11:58;;;;;;;1.92;1.08;;;22.60;57.10;;;;;;6239571;28;20083;-74
2023/09/17 03:14:59;;;;;;;2.35;1.30;;;22.60;57.20;;;;;;6239927;28;20029;-76
2023/09/17 03:18:00;;;;;;;1.85;1.02;;;22.60;57.20;;;;;;6239840;28;20037;-76
2023/09/17 03:21:07;;;;;;;2.20;0.88;;;22.60;57.20;;;;;;6239182;28;20048;-74
2023/09/17 03:24:09;;;;;;;4.78;1.00;;;22.60;57.10;;;;;;6223520;28;20034;-77
2023/09/17 03:27:10;;;;;;;4.43;0.95;;;22.60;57.10;;;;;;6239677;28;20067;-75
2023/09/17 03:30:12;;;;;;;2.67;1.23;;;22.60;57.20;;;;;;6238583;28;20033;-75
2023/09/17 03:33:14;;;;;;;7.57;0.90;;;22.60;57.30;;;;;;6239175;28;20045;-75
2023/09/17 03:36:19;;;;;;;2.47;1.45;;;22.50;57.30;;;;;;6238951;28;20041;-75
2023/09/17 03:39:21;;;;;;;1.65;1.10;;;22.50;57.50;;;;;;6238788;28;20026;-75
2023/09/17 03:42:22;;;;;;;4.57;1.10;;;22.50;57.50;;;;;;6238838;28;20103;-75
2023/09/17 03:45:22;;;;;;;3.63;1.05;;;22.60;57.50;;;;;;6238420;28;20037;-75
2023/09/17 03:48:24;;;;;;;9.77;1.17;;;22.50;57.60;;;;;;6238910;28;20334;-76
2023/09/17 03:51:28;;;;;;;2.42;1.15;;;22.50;57.70;;;;;;6239985;28;20032;-76
2023/09/17 03:54:29;;;;;;;4.88;1.08;;;22.40;57.70;;;;;;6239210;28;20025;-74
2023/09/17 03:57:31;;;;;;;2.63;0.90;;;22.50;57.70;;;;;;6238932;28;20091;-75
2023/09/17 04:00:32;;;;;;;4.00;1.08;;;22.40;57.60;;;;;;6238787;28;20041;-76
2023/09/17 04:03:34;;;;;;;2.90;1.10;;;22.40;57.60;;;;;;6222781;28;20033;-75
2023/09/17 04:06:35;;;;;;;3.38;1.27;;;22.40;57.60;;;;;;6221933;28;20052;-75
2023/09/17 04:09:36;;;;;;;6.40;1.05;;;22.40;57.60;;;;;;6237737;28;20083;-76
2023/09/17 04:12:38;;;;;;;9.57;1.35;;;22.40;57.60;;;;;;6239530;28;20291;-75
2023/09/17 04:15:39;;;;;;;9.20;1.25;;;22.40;57.70;;;;;;6238078;28;20447;-76
2023/09/17 04:18:40;;;;;;;2.47;0.68;;;22.30;57.70;;;;;;6238259;28;20097;-76
2023/09/17 04:21:41;;;;;;;2.35;1.00;;;22.40;57.80;;;;;;6238410;28;20091;-75
2023/09/17 04:24:42;;;;;;;10.07;1.60;;;22.30;57.80;;;;;;6238474;28;20484;-76
2023/09/17 04:27:44;;;;;;;4.10;1.60;;;22.30;57.80;;;;;;6238131;28;20426;-76
2023/09/17 04:30:48;;;;;;;4.15;1.00;;;22.30;58.00;;;;;;6238101;28;20127;-74
2023/09/17 04:33:49;;;;;;;2.45;1.10;;;22.30;58.10;;;;;;6237942;28;20687;-75
2023/09/17 04:36:50;;;;;;;3.75;1.00;;;22.20;58.10;;;;;;6237911;28;20040;-76
2023/09/17 04:39:51;;;;;;;2.67;1.30;;;22.20;58.10;;;;;;6237511;28;20025;-74
2023/09/17 04:42:52;;;;;;;9.35;1.20;;;22.20;58.20;;;;;;6239166;28;20032;-75
2023/09/17 04:45:54;;;;;;;3.50;1.15;;;22.10;58.20;;;;;;6221100;28;20364;-75
2023/09/17 04:49:00;;;;;;;4.47;1.10;;;22.20;58.30;;;;;;6237964;28;20029;-75
2023/09/17 04:52:05;;;;;;;2.50;1.35;;;22.20;58.40;;;;;;6237493;28;20504;-74
2023/09/17 04:55:06;;;;;;;4.50;1.27;;;22.20;58.50;;;;;;6237654;28;20101;-75
2023/09/17 04:58:08;;;;;;;5.57;1.50;;;22.10;58.50;;;;;;6237812;28;20048;-75
2023/09/17 05:01:12;;;;;;;2.90;1.20;;;22.10;58.60;;;;;;6228827;28;20092;-74
2023/09/17 05:04:13;;;;;;;4.57;0.93;;;22.10;58.70;;;;;;6218725;28;20097;-74
2023/09/17 05:07:14;;;;;;;1.98;1.13;;;22.10;58.80;;;;;;6213092;28;20090;-76
2023/09/17 05:10:16;;;;;;;7.15;1.25;;;22.00;58.80;;;;;;6213493;28;20180;-76
2023/09/17 05:13:17;;;;;;;9.40;1.60;;;22.00;58.90;;;;;;6237230;28;20148;-75
2023/09/17 05:16:20;;;;;;;4.53;1.48;;;22.00;59.00;;;;;;6237009;28;20557;-74
2023/09/17 05:19:23;;;;;;;7.28;1.30;;;22.00;58.90;;;;;;6236575;28;20025;-75
2023/09/17 05:22:24;;;;;;;3.08;1.00;;;22.00;58.90;;;;;;6236743;28;20033;-75
2023/09/17 05:25:25;;;;;;;8.65;1.45;;;22.00;58.90;;;;;;6236921;28;20390;-75
2023/09/17 05:28:26;;;;;;;4.63;0.90;;;21.90;58.80;;;;;;6236694;28;20030;-76
2023/09/17 05:31:26;;;;;;;1.65;0.95;;;21.90;58.90;;;;;;6236230;28;20036;-75
2023/09/17 05:34:27;;;;;;;3.50;0.88;;;21.90;58.90;;;;;;6236633;28;20560;-75
2023/09/17 05:37:28;;;;;;;11.32;1.40;;;21.90;58.90;;;;;;6236477;28;20075;-74
2023/09/17 05:40:30;;;;;;;4.05;1.10;;;21.90;58.90;;;;;;6236069;28;20086;-74
2023/09/17 05:43:32;;;;;;;1.58;1.05;;;21.90;58.90;;;;;;6235891;28;20033;-75
2023/09/17 05:46:33;;;;;;;5.65;1.30;;;22.00;58.90;;;;;;6235742;28;20087;-74
2023/09/17 05:49:34;;;;;;;7.90;1.40;;;21.90;58.70;;;;;;6236963;28;20136;-74
2023/09/17 05:52:36;;;;;;;4.05;1.25;;;22.00;58.80;;;;;;6236270;28;20033;-74
2023/09/17 05:55:37;;;;;;;2.03;0.80;;;22.00;58.70;;;;;;6236189;28;20111;-75
2023/09/17 05:58:38;;;;;;;3.33;1.05;;;22.00;58.60;;;;;;6236122;28;20532;-74
2023/09/17 06:01:41;;;;;;;3.88;1.42;;;22.10;58.50;;;;;;6236033;28;20041;-75
2023/09/17 06:04:42;;;;;;;4.68;1.27;;;22.20;58.50;;;;;;6236042;28;20056;-75
2023/09/17 06:07:43;;;;;;;1.80;0.90;;;22.20;58.30;;;;;;6237764;28;20033;-74
2023/09/17 06:10:44;;;;;;;7.22;1.10;;;22.20;58.30;;;;;;6235904;28;20445;-75
2023/09/17 06:13:45;;;;;;;2.13;1.05;;;22.30;58.10;;;;;;6239393;28;20029;-75
2023/09/17 06:16:46;;;;;;;2.15;1.20;;;22.20;57.90;;;;;;6242787;28;20037;-77
2023/09/17 06:19:47;;;;;;;2.00;0.90;;;22.40;57.90;;;;;;6240512;28;20072;-77
2023/09/17 06:22:48;;;;;;;2.30;1.08;;;22.50;57.80;;;;;;6240748;28;20037;-75
2023/09/17 06:25:50;;;;;;;2.25;1.17;;;22.60;57.70;;;;;;6241160;28;20029;-75
2023/09/17 06:28:50;;;;;;;4.30;0.90;;;22.60;57.50;;;;;;6241918;28;20053;-76
2023/09/17 06:31:52;;;;;;;6.55;1.52;;;22.70;57.40;;;;;;6240943;28;20431;-75
2023/09/17 06:34:53;;;;;;;8.80;1.15;;;22.70;57.20;;;;;;6241119;28;20817;-75
2023/09/17 06:37:54;;;;;;;2.17;1.23;;;22.80;57.10;;;;;;6240852;28;20048;-74
2023/09/17 06:40:54;;;;;;;1.90;1.00;;;22.80;57.00;;;;;;6223858;28;20444;-76
2023/09/17 06:43:55;;;;;;;9.52;1.42;;;22.90;56.80;;;;;;6240088;28;20037;-76
2023/09/17 06:46:56;;;;;;;3.60;1.27;;;22.90;57.10;;;;;;6241708;28;20060;-75
2023/09/17 06:49:57;;;;;;;5.50;1.30;;;23.00;56.50;;;;;;6241717;28;20057;-75
2023/09/17 06:52:58;;;;;;;2.45;1.15;;;23.10;56.10;;;;;;6223979;28;20101;-75
2023/09/17 06:55:59;;;;;;;4.60;0.98;;;23.20;55.80;;;;;;6241847;28;20033;-75
2023/09/17 06:59:00;;;;;;;4.57;1.13;;;23.30;55.70;;;;;;6240145;28;20029;-75
2023/09/17 07:02:00;;;;;;;3.97;1.35;;;23.40;55.40;;;;;;6239972;28;20048;-75
2023/09/17 07:05:03;;;;;;;5.07;1.40;;;23.50;55.20;;;;;;6241532;28;20033;-74
2023/09/17 07:08:04;;;;;;;3.30;1.20;;;23.60;55.00;;;;;;6239961;28;20048;-74
2023/09/17 07:11:05;;;;;;;5.53;1.10;;;23.70;54.60;;;;;;6240537;28;20036;-75
2023/09/17 07:14:09;;;;;;;4.32;0.93;;;23.70;54.20;;;;;;6241141;28;20479;-77
2023/09/17 07:17:10;;;;;;;4.60;1.23;;;23.70;53.90;;;;;;6239274;28;20033;-75
2023/09/17 07:20:13;;;;;;;1.92;0.95;;;23.70;54.00;;;;;;6239423;28;20060;-74
2023/09/17 07:23:14;;;;;;;2.80;1.17;;;23.80;54.00;;;;;;6241072;28;20124;-75
2023/09/17 07:26:16;;;;;;;1.85;1.10;;;23.90;53.60;;;;;;6240688;28;20029;-76
2023/09/17 07:29:16;;;;;;;1.63;0.70;;;24.00;53.40;;;;;;6239664;28;20037;-77
2023/09/17 07:32:17;;;;;;;1.20;1.08;;;24.00;53.30;;;;;;6240570;28;20056;-77
2023/09/17 07:35:18;;;;;;;2.28;1.05;;;24.00;53.10;;;;;;6240664;28;20076;-75
2023/09/17 07:38:19;;;;;;;12.88;1.10;;;24.10;53.30;;;;;;6239122;28;20040;-75
2023/09/17 07:41:20;;;;;;;3.85;1.38;;;24.20;53.20;;;;;;6240588;28;20070;-76
2023/09/17 07:44:20;;;;;;;2.53;1.30;;;24.30;53.00;;;;;;6240236;28;20116;-75
2023/09/17 07:47:21;;;;;;;5.00;1.10;;;24.30;52.70;;;;;;6238556;28;20061;-76
2023/09/17 07:50:22;;;;;;;3.55;1.20;;;24.40;52.60;;;;;;6237956;28;20124;-75
2023/09/17 07:53:24;;;;;;;4.65;1.10;;;24.50;52.60;;;;;;6240734;28;20040;-75
2023/09/17 07:56:25;;;;;;;2.33;1.15;;;24.60;52.60;;;;;;6240311;28;20087;-75
2023/09/17 07:59:25;;;;;;;2.03;1.20;;;24.70;52.60;;;;;;6240458;28;20355;-76
2023/09/17 08:02:26;;;;;;;1.15;0.85;;;24.90;52.00;;;;;;6238692;28;20059;-75
2023/09/17 08:05:29;;;;;;;3.17;1.00;;;24.90;51.70;;;;;;6240062;28;20045;-75
2023/09/17 08:08:30;;;;;;;5.63;1.10;;;25.00;51.50;;;;;;6238450;28;20044;-76
2023/09/17 08:11:34;;;;;;;2.80;1.02;;;25.10;51.30;;;;;;6238442;28;20453;-74
2023/09/17 08:14:36;;;;;;;7.15;1.40;;;25.20;51.10;;;;;;6239830;28;20083;-75
2023/09/17 08:17:36;;;;;;;3.00;0.93;;;25.30;51.60;;;;;;6238365;28;20107;-74
2023/09/17 08:20:37;;;;;;;4.30;1.45;;;25.50;50.50;;;;;;6237928;28;20045;-74
2023/09/17 08:23:38;;;;;;;3.20;0.90;;;25.60;50.00;;;;;;6239410;28;20033;-75
2023/09/17 08:26:39;;;;;;;7.43;1.73;;;25.70;49.80;;;;;;6237983;28;20030;-75
2023/09/17 08:29:40;;;;;;;2.60;1.33;;;25.80;49.60;;;;;;6237850;28;20227;-76
2023/09/17 08:32:43;;;;;;;7.30;1.70;;;25.90;49.10;;;;;;6239622;28;20066;-75
2023/09/17 08:35:44;;;;;;;4.43;1.13;;;26.00;48.80;;;;;;6238466;28;20117;-76
2023/09/17 08:38:44;;;;;;;6.60;2.00;;;26.00;48.60;;;;;;6239178;28;20042;-76
2023/09/17 08:41:47;;;;;;;4.93;2.17;;;26.10;48.60;;;;;;6239032;28;20166;-75
2023/09/17 08:44:50;;;;;;;5.93;2.30;;;26.10;48.60;;;;;;6239016;28;20033;-76
2023/09/17 08:47:51;;;;;;;5.75;1.40;;;26.10;48.50;;;;;;6228903;28;20057;-76
2023/09/17 08:50:54;;;;;;;5.07;1.83;;;26.20;48.50;;;;;;6214418;28;20715;-75
2023/09/17 08:54:05;;;;;;;2.55;1.20;;;26.20;48.40;;;;;;6214586;28;20216;-75
2023/09/17 08:57:07;;;;;;;4.28;1.20;;;26.20;48.40;;;;;;6212843;28;20128;-75
2023/09/17 09:00:10;;;;;;;4.65;1.58;;;26.40;48.50;;;;;;6214143;28;20029;-75
2023/09/17 09:03:14;;;;;;;6.65;1.48;;;26.40;48.40;;;;;;6214627;28;20056;-74
2023/09/17 09:06:17;;;;;;;10.18;3.13;;;26.50;48.30;;;;;;6212068;28;20663;-76
2023/09/17 09:09:20;;;;;;;9.57;2.20;;;26.70;48.10;;;;;;6230026;28;20044;-75
2023/09/17 09:12:21;;;;;;;2.58;1.33;;;26.70;48.00;;;;;;6238360;28;20090;-77
2023/09/17 09:15:23;;;;;;;1.95;1.33;;;26.80;47.70;;;;;;6238272;28;20029;-74
2023/09/17 09:18:24;;;;;;;3.38;1.13;;;26.90;47.60;;;;;;6238349;28;20033;-75
2023/09/17 09:21:25;;;;;;;6.65;1.30;;;27.00;47.20;;;;;;6238137;28;20044;-76
2023/09/17 09:24:39;;;;;;;4.40;1.60;;;27.00;46.90;;;;;;6238437;28;20112;-75
2023/09/17 09:27:40;;;;;;;7.20;2.17;;;27.20;46.70;;;;;;6236621;28;20037;-75
2023/09/17 09:30:45;;;;;;;7.22;2.40;;;27.30;46.50;;;;;;6237766;28;20055;-76
2023/09/17 09:33:45;;;;;;;8.85;3.08;;;27.40;46.20;;;;;;6238162;28;20037;-76
2023/09/17 09:36:50;;;;;;;4.65;2.30;;;27.50;45.70;;;;;;6237970;28;20096;-75
2023/09/17 09:39:52;;;;;;;15.45;2.50;;;27.60;45.60;;;;;;6238042;28;20045;-76
2023/09/17 09:42:53;;;;;;;8.95;2.20;;;27.70;45.20;;;;;;6219258;28;20057;-76
2023/09/17 09:45:53;;;;;;;4.45;1.42;;;27.90;44.80;;;;;;6225862;28;20180;-75
2023/09/17 09:49:00;;;;;;;2.42;1.52;;;28.00;44.60;;;;;;6237220;28;20037;-76
2023/09/17 09:52:01;;;;;;;9.50;2.67;;;28.00;43.80;;;;;;6237620;28;20063;-76
2023/09/17 09:55:02;;;;;;;5.43;2.13;;;28.10;43.90;;;;;;6220135;28;20109;-76
2023/09/17 09:58:03;;;;;;;5.80;1.63;;;28.20;43.80;;;;;;6238111;28;20052;-76
2023/09/17 10:01:04;;;;;;;5.00;1.70;;;28.40;43.60;;;;;;6219212;28;20466;-75
2023/09/17 10:04:08;;;;;;;6.20;2.65;;;28.40;43.20;;;;;;6238003;28;20124;-76
2023/09/17 10:07:09;;;;;;;14.27;2.30;;;28.50;43.00;;;;;;6237436;28;20149;-74
2023/09/17 10:10:11;;;;;;;6.28;2.03;;;28.60;42.80;;;;;;6236942;28;20517;-75
2023/09/17 10:13:12;;;;;;;7.93;4.07;;;28.80;42.70;;;;;;6228224;28;20057;-75
2023/09/17 10:16:14;;;;;;;7.07;3.10;;;28.90;42.30;;;;;;6213047;28;20026;-75
2023/09/17 10:19:20;;;;;;;10.57;3.30;;;29.00;42.30;;;;;;6212819;28;20442;-78
2023/09/17 10:22:23;;;;;;;10.85;3.75;;;29.20;42.20;;;;;;6212925;28;20030;-76
2023/09/17 10:25:26;;;;;;;7.70;1.75;;;29.40;41.60;;;;;;6212923;28;20034;-76
2023/09/17 10:28:27;;;;;;;7.47;2.08;;;29.60;41.50;;;;;;6227636;28;20060;-75
2023/09/17 10:31:29;;;;;;;9.50;2.53;;;29.70;41.10;;;;;;6212206;28;20064;-75
2023/09/17 10:34:32;;;;;;;11.00;2.72;;;30.00;40.90;;;;;;6212699;28;20123;-75
2023/09/17 10:37:36;;;;;;;3.85;1.90;;;30.20;40.50;;;;;;6216764;28;20033;-77
2023/09/17 10:40:38;;;;;;;2.05;1.30;;;30.50;40.10;;;;;;6235385;28;20161;-75
2023/09/17 10:43:40;;;;;;;5.22;1.50;;;30.80;40.20;;;;;;6235803;28;20033;-75
2023/09/17 10:46:45;;;;;;;7.57;1.38;;;31.10;39.20;;;;;;6236931;28;20151;-75
2023/09/17 10:49:46;;;;;;;5.60;1.10;;;31.30;38.80;;;;;;6235672;28;20060;-75
2023/09/17 10:52:47;;;;;;;3.92;1.58;;;31.50;38.40;;;;;;6236974;28;20543;-77
2023/09/17 10:55:58;;;;;;;4.65;1.38;;;31.70;38.30;;;;;;6237174;28;20034;-76
2023/09/17 10:59:00;;;;;;;2.67;0.77;;;32.00;38.20;;;;;;6235316;28;20101;-76
2023/09/17 11:02:02;;;;;;;4.82;1.27;;;32.30;37.90;;;;;;6239356;28;20053;-75
2023/09/17 11:05:04;;;;;;;9.25;1.48;;;32.60;37.40;;;;;;6240891;28;20037;-76
2023/09/17 11:08:07;;;;;;;6.72;1.40;;;32.90;37.00;;;;;;6239647;28;20440;-75
2023/09/17 11:11:08;;;;;;;9.30;1.73;;;33.20;36.60;;;;;;6238550;28;20358;-76
2023/09/17 11:14:10;;;;;;;3.83;1.33;;;33.40;36.20;;;;;;6239196;28;20172;-75
2023/09/17 11:17:17;;;;;;;6.80;1.50;;;33.60;35.90;;;;;;6238906;28;20029;-76
2023/09/17 11:20:20;;;;;;;10.90;2.03;;;33.80;35.70;;;;;;6239001;28;20109;-78
2023/09/17 11:23:53;;;;;;;6.07;1.73;;;34.00;35.50;;;;;;6240666;28;20078;-76
2023/09/17 11:26:57;;;;;;;2.38;1.30;;;34.20;34.80;;;;;;6240620;28;20030;-75
2023/09/17 11:29:58;;;;;;;4.88;1.73;;;34.40;34.60;;;;;;6240399;28;20112;-77
2023/09/17 11:32:58;;;;;;;9.18;2.80;;;34.70;34.40;;;;;;6238785;28;20473;-75
2023/09/17 11:36:01;;;;;;;9.05;1.65;;;35.10;33.50;;;;;;6239944;28;20112;-74
2023/09/17 11:39:15;;;;;;;7.40;1.73;;;35.50;33.00;;;;;;6239930;28;20033;-75
2023/09/17 11:42:16;;;;;;;7.70;1.60;;;35.80;32.10;;;;;;6238681;28;20163;-74
2023/09/17 11:45:17;;;;;;;9.60;1.67;;;36.20;31.60;;;;;;6239445;28;20041;-76
2023/09/17 11:48:18;;;;;;;5.40;1.65;;;36.50;30.60;;;;;;6240332;28;20039;-76
2023/09/17 11:51:27;;;;;;;12.55;2.15;;;36.90;30.20;;;;;;6239985;28;20041;-76
2023/09/17 11:54:34;;;;;;;8.73;1.95;;;37.20;29.70;;;;;;6240445;28;20103;-75
2023/09/17 11:57:35;;;;;;;4.43;1.65;;;37.60;29.40;;;;;;6239915;28;20048;-75
2023/09/17 12:00:35;;;;;;;8.52;1.58;;;38.00;28.80;;;;;;6239742;28;20650;-75
2023/09/17 12:03:37;;;;;;;8.93;2.25;;;38.30;28.50;;;;;;6239809;28;20061;-76
2023/09/17 12:06:40;;;;;;;5.97;1.90;;;38.60;28.20;;;;;;6239639;28;20127;-76
2023/09/17 12:09:58;;;;;;;13.95;1.73;;;38.80;28.10;;;;;;6239145;28;20098;-75
2023/09/17 12:12:59;;;;;;;7.55;1.63;;;39.10;27.90;;;;;;6239523;28;20112;-77
2023/09/17 12:16:00;;;;;;;6.40;2.03;;;39.40;27.70;;;;;;6239783;28;20470;-75
2023/09/17 12:19:02;;;;;;;5.97;1.52;;;39.80;27.30;;;;;;6239433;28;20045;-76
2023/09/17 12:22:08;;;;;;;7.35;1.83;;;40.10;26.90;;;;;;6237824;28;20168;-77
2023/09/17 12:25:13;;;;;;;6.60;1.60;;;40.40;26.50;;;;;;6237770;28;20077;-75
2023/09/17 12:28:15;;;;;;;10.98;1.65;;;40.60;26.30;;;;;;6237541;28;20051;-76
2023/09/17 12:31:16;;;;;;;8.98;1.50;;;41.00;26.00;;;;;;6238835;28;20033;-77
2023/09/17 12:34:19;;;;;;;7.25;1.58;;;41.40;25.80;;;;;;6237717;28;20099;-75
2023/09/17 12:37:22;;;;;;;9.02;1.75;;;41.80;25.10;;;;;;6239290;28;20087;-76
2023/09/17 12:40:23;;;;;;;9.35;1.98;;;42.40;24.70;;;;;;6236952;28;20045;-75
2023/09/17 12:43:23;;;;;;;16.02;2.03;;;42.70;24.50;;;;;;6238538;28;20055;-75
2023/09/17 12:46:25;;;;;;;27.58;2.13;;;42.60;24.30;;;;;;6236805;28;20033;-76
2023/09/17 12:49:26;;;;;;;9.65;1.70;;;42.80;23.60;;;;;;6238104;28;20100;-76
2023/09/17 12:52:28;;;;;;;14.23;2.05;;;42.60;23.30;;;;;;6236513;28;20033;-74
2023/09/17 12:55:29;;;;;;;8.30;1.67;;;42.40;23.20;;;;;;6236774;28;20026;-76
2023/09/17 12:58:32;;;;;;;12.35;2.05;;;42.20;23.30;;;;;;6238301;28;20156;-75
2023/09/17 13:01:33;;;;;;;8.07;1.90;;;42.10;23.30;;;;;;6236732;28;20033;-77
2023/09/17 13:04:38;;;;;;;8.32;1.65;;;42.10;23.00;;;;;;6238467;28;20077;-76
2023/09/17 13:07:39;;;;;;;7.30;1.90;;;42.20;22.60;;;;;;6237323;28;20520;-75
2023/09/17 13:10:40;;;;;;;7.75;2.38;;;42.40;22.70;;;;;;6236437;28;20064;-77
2023/09/17 13:13:45;;;;;;;15.55;2.17;;;42.50;22.90;;;;;;6238479;28;20680;-75
2023/09/17 13:16:47;;;;;;;18.20;2.08;;;42.90;22.50;;;;;;6238602;28;20040;-76
2023/09/17 13:19:49;;;;;;;16.42;2.00;;;43.30;22.00;;;;;;6238422;28;20083;-76
2023/09/17 13:22:50;;;;;;;16.70;2.53;;;43.90;22.10;;;;;;6220998;28;20036;-76
2023/09/17 13:25:52;;;;;;;15.38;2.10;;;44.40;21.30;;;;;;6238975;28;20132;-75
2023/09/17 13:28:54;;;;;;;8.82;2.03;;;44.60;21.50;;;;;;6238735;28;20086;-75
2023/09/17 13:31:55;;;;;;;23.38;3.05;;;44.60;21.60;;;;;;6236937;28;20033;-76
2023/09/17 13:34:58;;;;;;;3.92;1.48;;;44.30;21.20;;;;;;6238497;28;20410;-76
2023/09/17 13:38:00;;;;;;;13.85;2.03;;;43.70;21.60;;;;;;6236311;28;20656;-77
2023/09/17 13:41:01;;;;;;;29.17;2.30;;;43.00;21.80;;;;;;6237776;28;20061;-79
2023/09/17 13:44:02;;;;;;;19.38;2.08;;;42.20;21.20;;;;;;6239553;28;20474;-78
2023/09/17 13:47:06;;;;;;;30.13;2.53;;;41.40;21.40;;;;;;6236386;28;20084;-77
2023/09/17 13:50:08;;;;;;;21.52;2.53;;;40.60;22.10;;;;;;6239383;28;20021;-79
2023/09/17 13:53:09;;;;;;;18.42;3.42;;;39.90;21.60;;;;;;6236333;28;20540;-78
2023/09/17 13:56:09;;;;;;;17.67;1.85;;;39.40;22.00;;;;;;6236939;28;20036;-75
2023/09/17 13:59:10;;;;;;;20.95;2.80;;;38.70;22.10;;;;;;6236607;28;20029;-77
2023/09/17 14:02:12;;;;;;;25.58;2.83;;;38.20;22.50;;;;;;6220729;28;20045;-79
2023/09/17 14:05:13;;;;;;;22.25;2.80;;;37.80;22.80;;;;;;6237779;28;20379;-79
2023/09/17 14:08:14;;;;;;;21.20;2.92;;;37.50;23.00;;;;;;6235891;28;20045;-80
2023/09/17 14:11:15;;;;;;;18.90;3.35;;;37.20;23.30;;;;;;6235467;28;20822;-78
2023/09/17 14:14:15;;;;;;;24.20;2.88;;;37.00;23.50;;;;;;6235843;28;20041;-75
2023/09/17 14:17:16;;;;;;;26.92;3.45;;;36.80;23.50;;;;;;6237780;28;20049;-78
2023/09/17 14:20:21;;;;;;;17.90;2.67;;;36.60;23.50;;;;;;6236540;28;20025;-80
2023/09/17 14:23:22;;;;;;;32.70;3.22;;;36.50;23.90;;;;;;6234141;28;20036;-78
2023/09/17 14:26:23;;;;;;;21.73;3.08;;;36.40;24.00;;;;;;6221324;28;20428;-79
2023/09/17 14:29:23;;;;;;;33.40;3.72;;;36.30;24.00;;;;;;6212692;28;20026;-75
2023/09/17 14:32:25;;;;;;;34.15;4.18;;;36.20;24.20;;;;;;6213612;28;20053;-78
2023/09/17 14:35:27;;;;;;;28.98;3.30;;;36.10;24.30;;;;;;6214872;28;20026;-80
2023/09/17 14:38:28;;;;;;;34.05;4.32;;;36.10;24.50;;;;;;6216676;28;20049;-79
2023/09/17 14:41:29;;;;;;;20.98;2.72;;;36.10;24.60;;;;;;6217828;28;20481;-79
2023/09/17 14:44:31;;;;;;;26.60;2.40;;;36.10;24.70;;;;;;6219247;28;20037;-78
2023/09/17 14:47:32;;;;;;;32.97;3.88;;;36.10;24.80;;;;;;6241895;28;20033;-78
2023/09/17 14:50:33;;;;;;;21.30;2.60;;;36.10;24.80;;;;;;6241921;28;20803;-80
2023/09/17 14:53:34;;;;;;;22.70;3.60;;;36.10;24.80;;;;;;6224276;28;20105;-78
2023/09/17 14:56:35;;;;;;;30.02;3.63;;;36.20;24.80;;;;;;6240946;28;20041;-78
2023/09/17 14:59:35;;;;;;;34.05;3.20;;;36.20;24.70;;;;;;6241469;28;20040;-78
2023/09/17 15:02:36;;;;;;;29.95;3.00;;;36.20;24.80;;;;;;6241835;28;20056;-81
2023/09/17 15:05:39;;;;;;;34.33;4.03;;;36.10;25.00;;;;;;6241796;28;20026;-78
2023/09/17 15:08:40;;;;;;;19.70;3.40;;;36.00;25.20;;;;;;6242117;28;20037;-79
2023/09/17 15:11:41;;;;;;;20.98;3.70;;;35.90;25.10;;;;;;6226911;28;20045;-78
2023/09/17 15:14:42;;;;;;;33.38;4.50;;;35.80;25.20;;;;;;6217412;28;20025;-77
2023/09/17 15:17:43;;;;;;;25.88;4.63;;;35.80;25.40;;;;;;6215360;28;20078;-78
2023/09/17 15:20:46;;;;;;;31.60;4.57;;;35.80;25.50;;;;;;6238964;28;20378;-79
2023/09/17 15:23:46;;;;;;;34.58;3.90;;;35.80;25.50;;;;;;6239277;28;20116;-78
2023/09/17 15:26:47;;;;;;;37.67;4.32;;;35.80;25.60;;;;;;6238815;28;20041;-79
2023/09/17 15:29:49;;;;;;;51.73;4.83;;;35.80;25.70;;;;;;6238800;28;20100;-76
2023/09/17 15:32:50;;;;;;;25.73;3.67;;;35.80;25.70;;;;;;6238834;28;20541;-77
2023/09/17 15:35:52;;;;;;;34.45;4.32;;;35.70;25.80;;;;;;6240858;28;20060;-78
2023/09/17 15:38:52;;;;;;;38.58;3.50;;;35.70;25.80;;;;;;6240587;28;20180;-78
2023/09/17 15:41:54;;;;;;;38.33;4.38;;;35.70;25.90;;;;;;6238848;28;20030;-78
2023/09/17 15:44:55;;;;;;;32.67;4.45;;;35.60;25.90;;;;;;6237691;28;20141;-78